createdAt,value
2019-05-30T00:00:16.944Z,87.90
2019-05-30T00:02:39.582Z,88.90
2019-05-30T00:05:07.954Z,88.90
2019-05-30T00:07:36.357Z,89.20
2019-05-30T00:10:06.503Z,89.70
2019-05-30T00:12:34.961Z,90.20
2019-05-30T00:15:06.455Z,90.40
2019-05-30T00:17:35.125Z,90.70
2019-05-30T00:20:05.389Z,90.70
2019-05-30T00:22:34.863Z,91.10
2019-05-30T00:25:04.679Z,91.50
2019-05-30T00:27:33.086Z,91.70
2019-05-30T00:30:01.541Z,92.10
2019-05-30T00:32:29.996Z,92.30
2019-05-30T00:34:59.585Z,92.30
2019-05-30T00:37:28.073Z,92.10
2019-05-30T00:39:57.754Z,92.30
2019-05-30T00:42:26.253Z,92.00
2019-05-30T00:44:55.772Z,92.30
2019-05-30T00:47:24.223Z,92.20
2019-05-30T00:49:52.633Z,92.00
2019-05-30T00:52:21.012Z,91.80
2019-05-30T00:54:51.036Z,91.90
2019-05-30T00:57:19.411Z,92.00
2019-05-30T00:59:47.808Z,92.10
2019-05-30T01:02:16.184Z,92.40
2019-05-30T01:04:44.646Z,92.10
2019-05-30T01:07:13.012Z,92.10
2019-05-30T01:09:41.411Z,92.40
2019-05-30T01:12:09.794Z,92.40
2019-05-30T01:14:38.191Z,93.00
2019-05-30T01:17:07.405Z,93.00
2019-05-30T01:19:35.971Z,93.10
2019-05-30T01:22:05.486Z,93.30
2019-05-30T01:24:34.465Z,93.00
2019-05-30T01:27:03.455Z,92.90
2019-05-30T01:29:31.969Z,93.00
2019-05-30T01:32:01.988Z,92.80
2019-05-30T01:34:30.347Z,92.70
2019-05-30T01:36:59.851Z,92.70
2019-05-30T01:39:28.412Z,92.80
2019-05-30T01:41:57.741Z,93.10
2019-05-30T01:44:26.268Z,93.60
2019-05-30T01:46:54.653Z,93.80
2019-05-30T01:49:23.038Z,93.80
2019-05-30T01:51:51.369Z,93.60
2019-05-30T01:54:19.743Z,93.70
2019-05-30T01:56:48.115Z,93.70
2019-05-30T01:59:16.502Z,93.60
2019-05-30T02:01:44.910Z,93.50
2019-05-30T02:04:13.312Z,93.80
2019-05-30T02:06:41.706Z,93.70
2019-05-30T02:09:11.057Z,93.90
2019-05-30T02:11:39.926Z,94.00
2019-05-30T02:14:09.789Z,93.90
2019-05-30T02:16:38.398Z,93.60
2019-05-30T02:19:07.843Z,93.30
2019-05-30T02:21:36.383Z,93.00
2019-05-30T02:24:05.894Z,93.10
2019-05-30T02:26:34.318Z,93.40
2019-05-30T02:29:02.701Z,93.40
2019-05-30T02:31:39.129Z,93.20
2019-05-30T02:34:02.922Z,93.30
2019-05-30T02:36:31.163Z,93.50
2019-05-30T02:39:00.783Z,93.40
2019-05-30T02:41:29.255Z,93.10
2019-05-30T02:43:57.623Z,92.70
2019-05-30T02:46:26.028Z,92.60
2019-05-30T02:48:58.940Z,92.60
2019-05-30T02:51:24.456Z,92.60
2019-05-30T02:53:52.822Z,92.60
2019-05-30T02:56:21.227Z,92.70
2019-05-30T02:58:49.687Z,92.70
2019-05-30T03:01:18.080Z,92.50
2019-05-30T03:03:46.452Z,92.70
2019-05-30T03:06:14.884Z,93.20
2019-05-30T03:08:43.250Z,92.80
2019-05-30T03:11:15.019Z,92.80
2019-05-30T03:13:41.679Z,93.10
2019-05-30T03:16:11.796Z,93.10
2019-05-30T03:18:40.084Z,92.60
2019-05-30T03:21:10.533Z,92.80
2019-05-30T03:23:38.516Z,93.10
2019-05-30T03:26:09.724Z,93.30
2019-05-30T03:28:37.044Z,93.00
2019-05-30T03:31:10.449Z,92.90
2019-05-30T03:33:40.377Z,92.60
2019-05-30T03:36:14.340Z,92.50
2019-05-30T03:38:35.542Z,92.60
2019-05-30T03:41:04.685Z,92.60
2019-05-30T03:43:33.951Z,93.00
2019-05-30T03:46:04.055Z,93.40
2019-05-30T03:48:32.433Z,93.20
2019-05-30T03:51:00.844Z,93.10
2019-05-30T03:53:29.197Z,92.70
2019-05-30T03:56:00.853Z,92.80
2019-05-30T03:58:35.408Z,92.80
2019-05-30T04:01:09.986Z,92.30
2019-05-30T04:03:53.973Z,92.70
2019-05-30T04:06:25.636Z,92.70
2019-05-30T04:08:57.119Z,92.90
2019-05-30T04:11:28.779Z,92.90
2019-05-30T04:14:00.880Z,93.00
2019-05-30T04:16:29.291Z,92.90
2019-05-30T04:18:57.663Z,93.20
2019-05-30T04:21:26.050Z,93.50
2019-05-30T04:23:54.422Z,93.20
2019-05-30T04:26:22.833Z,93.00
2019-05-30T04:28:51.219Z,93.10
2019-05-30T04:31:19.741Z,93.20
2019-05-30T04:33:48.112Z,92.80
2019-05-30T04:36:17.011Z,92.70
2019-05-30T04:38:46.308Z,92.70
2019-05-30T04:41:16.066Z,93.10
2019-05-30T04:43:45.279Z,92.80
2019-05-30T04:46:14.935Z,92.70
2019-05-30T04:48:43.696Z,92.60
2019-05-30T04:51:12.547Z,92.50
2019-05-30T04:53:42.116Z,92.40
2019-05-30T04:56:10.503Z,92.60
2019-05-30T04:58:42.377Z,92.70
2019-05-30T05:01:08.928Z,92.90
2019-05-30T05:03:45.980Z,93.00
2019-05-30T05:06:07.352Z,92.90
2019-05-30T05:08:35.739Z,92.60
2019-05-30T05:11:04.114Z,92.30
2019-05-30T05:13:32.511Z,92.70
2019-05-30T05:16:01.016Z,92.90
2019-05-30T05:18:36.082Z,92.60
2019-05-30T05:21:04.399Z,92.50
2019-05-30T05:23:32.787Z,92.30
2019-05-30T05:26:01.660Z,92.30
2019-05-30T05:28:30.048Z,92.10
2019-05-30T05:30:58.488Z,91.60
2019-05-30T05:33:27.672Z,91.00
2019-05-30T05:35:56.039Z,90.50
2019-05-30T05:38:24.531Z,90.70
2019-05-30T05:40:52.890Z,90.20
2019-05-30T05:43:22.382Z,90.60
2019-05-30T05:45:50.927Z,90.20
2019-05-30T05:48:20.382Z,89.00
2019-05-30T05:50:48.823Z,90.00
2019-05-30T05:53:17.208Z,88.30
2019-05-30T05:55:45.578Z,85.60
2019-05-30T05:58:13.970Z,85.60
2019-05-30T06:00:42.969Z,86.00
2019-05-30T06:03:11.933Z,86.40
2019-05-30T06:05:52.705Z,86.40
2019-05-30T06:08:10.393Z,86.90
2019-05-30T06:10:38.784Z,87.10
2019-05-30T06:13:07.149Z,84.80
2019-05-30T06:15:35.517Z,84.30
2019-05-30T06:18:03.934Z,83.70
2019-05-30T06:20:32.296Z,84.30
2019-05-30T06:23:00.675Z,83.40
2019-05-30T06:25:32.460Z,80.50
2019-05-30T06:27:59.085Z,80.50
2019-05-30T06:30:28.586Z,78.60
2019-05-30T06:32:57.127Z,79.70
2019-05-30T06:35:25.491Z,79.70
2019-05-30T06:37:53.857Z,79.10
2019-05-30T06:40:23.629Z,80.50
2019-05-30T06:42:53.095Z,79.40
2019-05-30T06:45:23.675Z,79.20
2019-05-30T06:47:51.516Z,79.50
2019-05-30T06:50:20.622Z,78.90
2019-05-30T06:52:49.098Z,77.80
2019-05-30T06:55:17.520Z,75.80
2019-05-30T06:57:45.888Z,75.30
2019-05-30T07:00:14.746Z,73.90
2019-05-30T07:02:43.153Z,73.00
2019-05-30T07:05:12.256Z,73.10
2019-05-30T07:07:41.161Z,72.70
2019-05-30T07:10:09.814Z,72.30
2019-05-30T07:12:38.211Z,72.50
2019-05-30T07:15:11.182Z,71.50
2019-05-30T07:17:39.511Z,71.20
2019-05-30T07:20:08.914Z,68.70
2019-05-30T07:22:37.282Z,69.10
2019-05-30T07:25:06.430Z,68.70
2019-05-30T07:27:34.813Z,68.30
2019-05-30T07:30:04.375Z,69.20
2019-05-30T07:32:32.744Z,68.30
2019-05-30T07:35:06.524Z,69.30
2019-05-30T07:37:32.323Z,65.50
2019-05-30T07:40:00.790Z,65.40
2019-05-30T07:42:29.155Z,64.10
2019-05-30T07:44:57.543Z,63.50
2019-05-30T07:47:28.136Z,64.10
2019-05-30T07:49:56.522Z,61.00
2019-05-30T07:52:24.890Z,63.50
2019-05-30T07:54:53.294Z,66.10
2019-05-30T07:57:21.672Z,64.20
2019-05-30T07:59:50.064Z,65.30
2019-05-30T08:02:18.445Z,66.30
2019-05-30T08:04:47.166Z,67.40
2019-05-30T08:07:15.570Z,66.10
2019-05-30T08:09:44.008Z,62.10
2019-05-30T08:12:28.234Z,61.50
2019-05-30T08:14:56.630Z,61.60
2019-05-30T08:17:24.991Z,60.20
2019-05-30T08:19:53.398Z,61.90
2019-05-30T08:22:21.759Z,61.00
2019-05-30T08:24:50.155Z,60.70
2019-05-30T08:27:18.519Z,62.10
2019-05-30T08:29:46.904Z,59.40
2019-05-30T08:32:33.172Z,58.00
2019-05-30T08:35:01.558Z,59.50
2019-05-30T08:37:31.992Z,57.10
2019-05-30T08:40:07.485Z,55.90
2019-05-30T08:42:36.072Z,57.20
2019-05-30T08:45:09.454Z,60.10
2019-05-30T08:47:36.038Z,58.90
2019-05-30T08:50:07.505Z,57.70
2019-05-30T08:52:36.474Z,56.90
2019-05-30T08:55:06.126Z,56.10
2019-05-30T08:57:35.010Z,57.10
2019-05-30T09:00:06.817Z,55.90
2019-05-30T09:02:35.196Z,52.70
2019-05-30T09:05:07.091Z,56.90
2019-05-30T09:07:36.437Z,56.60
2019-05-30T09:10:07.928Z,55.80
2019-05-30T09:12:37.909Z,53.70
2019-05-30T09:15:08.922Z,55.60
2019-05-30T09:17:38.709Z,53.50
2019-05-30T09:20:07.675Z,49.50
2019-05-30T09:22:37.930Z,51.80
2019-05-30T09:25:25.571Z,49.20
2019-05-30T09:27:53.963Z,49.60
2019-05-30T09:30:22.327Z,49.80
2019-05-30T09:32:50.788Z,50.10
2019-05-30T09:35:19.186Z,53.10
2019-05-30T09:37:47.892Z,51.00
2019-05-30T09:40:16.741Z,50.10
2019-05-30T09:42:46.910Z,49.00
2019-05-30T09:45:18.024Z,51.60
2019-05-30T09:47:47.394Z,49.30
2019-05-30T09:50:17.364Z,47.60
2019-05-30T09:52:47.006Z,50.00
2019-05-30T09:55:15.590Z,49.80
2019-05-30T09:57:44.605Z,49.40
2019-05-30T10:00:16.685Z,48.60
2019-05-30T10:02:46.591Z,47.10
2019-05-30T10:05:15.144Z,46.20
2019-05-30T10:07:45.270Z,48.20
2019-05-30T10:10:13.691Z,49.10
2019-05-30T10:12:42.174Z,46.00
2019-05-30T10:15:11.479Z,48.00
2019-05-30T10:17:39.939Z,45.40
2019-05-30T10:20:08.311Z,44.30
2019-05-30T10:22:36.709Z,45.20
2019-05-30T10:25:06.812Z,45.00
2019-05-30T10:27:35.211Z,45.60
2019-05-30T10:30:06.843Z,42.60
2019-05-30T10:32:35.225Z,41.90
2019-05-30T10:35:03.594Z,41.30
2019-05-30T10:37:31.991Z,40.90
2019-05-30T10:40:00.366Z,41.10
2019-05-30T10:42:28.815Z,41.70
2019-05-30T10:44:57.382Z,40.50
2019-05-30T10:47:25.787Z,41.30
2019-05-30T10:49:54.157Z,40.70
2019-05-30T10:52:22.562Z,42.70
2019-05-30T10:54:51.507Z,42.40
2019-05-30T10:57:20.023Z,43.60
2019-05-30T10:59:48.894Z,40.40
2019-05-30T11:02:18.434Z,40.20
2019-05-30T11:04:47.674Z,39.10
2019-05-30T11:07:34.710Z,41.70
2019-05-30T11:10:14.626Z,41.70
2019-05-30T11:12:42.955Z,41.80
2019-05-30T11:15:11.387Z,40.90
2019-05-30T11:17:39.787Z,35.60
2019-05-30T11:20:08.167Z,35.80
2019-05-30T11:22:36.524Z,39.40
2019-05-30T11:25:05.288Z,39.60
2019-05-30T11:27:33.673Z,36.20
2019-05-30T11:30:02.035Z,36.60
2019-05-30T11:32:30.413Z,39.40
2019-05-30T11:34:59.642Z,40.50
2019-05-30T11:37:28.136Z,40.80
2019-05-30T11:39:57.308Z,41.20
2019-05-30T11:42:25.878Z,42.20
2019-05-30T11:44:55.438Z,40.90
2019-05-30T11:47:23.926Z,40.20
2019-05-30T11:49:53.513Z,39.60
2019-05-30T11:52:22.092Z,36.20
2019-05-30T11:54:51.943Z,36.80
2019-05-30T11:57:20.537Z,40.80
2019-05-30T11:59:50.037Z,40.10
2019-05-30T12:02:18.491Z,35.30
2019-05-30T12:04:46.883Z,38.30
2019-05-30T12:07:15.262Z,36.30
2019-05-30T12:09:43.760Z,37.10
2019-05-30T12:12:12.123Z,38.00
2019-05-30T12:14:40.506Z,37.30
2019-05-30T12:17:08.820Z,36.10
2019-05-30T12:19:37.199Z,36.90
2019-05-30T12:22:05.563Z,36.20
2019-05-30T12:24:33.953Z,36.80
2019-05-30T12:27:02.650Z,38.40
2019-05-30T12:29:31.028Z,38.70
2019-05-30T12:32:00.784Z,39.80
2019-05-30T12:34:29.450Z,39.00
2019-05-30T12:36:58.513Z,38.30
2019-05-30T12:39:27.030Z,38.60
2019-05-30T12:41:55.451Z,38.20
2019-05-30T12:44:23.843Z,38.30
2019-05-30T12:46:53.369Z,42.90
2019-05-30T12:49:21.901Z,42.70
2019-05-30T12:51:50.198Z,42.30
2019-05-30T12:54:18.583Z,41.00
2019-05-30T12:56:46.957Z,40.10
2019-05-30T12:59:15.343Z,42.00
2019-05-30T13:01:43.780Z,40.90
2019-05-30T13:04:12.185Z,41.90
2019-05-30T13:06:40.543Z,40.90
2019-05-30T13:09:09.373Z,41.10
2019-05-30T13:11:38.420Z,41.70
2019-05-30T13:14:06.965Z,40.10
2019-05-30T13:16:35.355Z,38.30
2019-05-30T13:19:04.377Z,37.70
2019-05-30T13:21:32.747Z,35.30
2019-05-30T13:24:01.778Z,37.50
2019-05-30T13:26:30.401Z,35.80
2019-05-30T13:29:00.201Z,35.50
2019-05-30T13:31:28.783Z,35.80
2019-05-30T13:33:57.154Z,36.50
2019-05-30T13:36:25.548Z,32.60
2019-05-30T13:38:53.924Z,34.50
2019-05-30T13:41:22.316Z,36.10
2019-05-30T13:43:50.686Z,37.20
2019-05-30T13:46:19.091Z,35.90
2019-05-30T13:48:47.465Z,35.70
2019-05-30T13:51:15.853Z,35.40
2019-05-30T13:53:44.311Z,36.80
2019-05-30T13:56:12.682Z,36.40
2019-05-30T13:58:41.047Z,36.10
2019-05-30T14:01:13.280Z,38.40
2019-05-30T14:03:39.475Z,39.60
2019-05-30T14:06:08.367Z,38.40
2019-05-30T14:08:41.621Z,37.90
2019-05-30T14:11:06.827Z,37.90
2019-05-30T14:13:35.674Z,37.30
2019-05-30T14:16:04.866Z,37.50
2019-05-30T14:18:33.259Z,36.40
2019-05-30T14:21:02.265Z,37.40
2019-05-30T14:23:31.862Z,37.30
2019-05-30T14:26:01.245Z,37.90
2019-05-30T14:28:31.107Z,39.60
2019-05-30T14:30:59.591Z,39.40
2019-05-30T14:33:27.962Z,38.60
2019-05-30T14:35:56.367Z,36.80
2019-05-30T14:38:24.792Z,37.40
2019-05-30T14:40:55.431Z,35.50
2019-05-30T14:43:23.835Z,37.70
2019-05-30T14:45:53.143Z,36.80
2019-05-30T14:48:23.343Z,36.40
2019-05-30T14:50:51.732Z,37.80
2019-05-30T14:53:20.204Z,39.60
2019-05-30T14:55:48.574Z,39.20
2019-05-30T14:58:17.811Z,38.90
2019-05-30T15:00:46.356Z,38.40
2019-05-30T15:03:16.045Z,38.30
2019-05-30T15:05:44.608Z,37.50
2019-05-30T15:08:13.274Z,37.10
2019-05-30T15:10:41.675Z,38.30
2019-05-30T15:13:10.100Z,39.10
2019-05-30T15:15:38.470Z,38.00
2019-05-30T15:18:07.149Z,38.30
2019-05-30T15:20:35.733Z,39.00
2019-05-30T15:23:05.421Z,38.80
2019-05-30T15:25:33.908Z,38.70
2019-05-30T15:28:02.314Z,39.20
2019-05-30T15:30:30.691Z,38.50
2019-05-30T15:32:59.071Z,39.50
2019-05-30T15:35:27.505Z,39.60
2019-05-30T15:37:55.913Z,39.60
2019-05-30T15:40:24.262Z,38.70
2019-05-30T15:42:53.234Z,38.50
2019-05-30T15:45:23.812Z,38.80
2019-05-30T15:47:52.205Z,40.30
2019-05-30T15:50:20.710Z,39.50
2019-05-30T15:52:49.104Z,38.60
2019-05-30T15:55:17.620Z,38.90
2019-05-30T15:57:47.518Z,39.90
2019-05-30T16:00:16.212Z,39.50
2019-05-30T16:02:44.628Z,38.90
2019-05-30T16:05:14.570Z,38.90
2019-05-30T16:07:43.151Z,38.60
2019-05-30T16:10:12.761Z,40.00
2019-05-30T16:12:41.327Z,40.10
2019-05-30T16:15:09.719Z,40.30
2019-05-30T16:17:38.089Z,40.20
2019-05-30T16:20:06.952Z,39.90
2019-05-30T16:22:35.301Z,39.80
2019-05-30T16:25:04.770Z,41.00
2019-05-30T16:27:33.138Z,40.60
2019-05-30T16:30:01.726Z,40.00
2019-05-30T16:32:30.412Z,40.40
2019-05-30T16:34:58.988Z,42.00
2019-05-30T16:37:27.436Z,41.20
2019-05-30T16:40:05.810Z,39.70
2019-05-30T16:42:26.540Z,40.00
2019-05-30T16:44:54.948Z,40.00
2019-05-30T16:47:23.341Z,39.80
2019-05-30T16:49:51.712Z,39.50
2019-05-30T16:52:21.022Z,40.20
2019-05-30T16:54:49.467Z,40.30
2019-05-30T16:57:18.538Z,39.30
2019-05-30T16:59:47.146Z,40.90
2019-05-30T17:02:16.784Z,40.50
2019-05-30T17:04:45.666Z,40.80
2019-05-30T17:07:15.022Z,42.00
2019-05-30T17:09:43.502Z,41.40
2019-05-30T17:12:11.811Z,40.90
2019-05-30T17:14:40.198Z,41.20
2019-05-30T17:17:08.571Z,41.80
2019-05-30T17:19:39.348Z,42.60
2019-05-30T17:22:07.151Z,43.30
2019-05-30T17:24:35.550Z,43.70
2019-05-30T17:27:03.930Z,43.70
2019-05-30T17:29:32.305Z,43.20
2019-05-30T17:32:00.672Z,43.90
2019-05-30T17:34:29.061Z,44.70
2019-05-30T17:36:57.487Z,44.60
2019-05-30T17:39:26.675Z,45.30
2019-05-30T17:41:55.110Z,45.70
2019-05-30T17:44:23.499Z,45.10
2019-05-30T17:46:51.857Z,45.30
2019-05-30T17:49:21.650Z,45.30
2019-05-30T17:51:50.089Z,45.70
2019-05-30T17:54:19.654Z,46.60
2019-05-30T17:56:48.115Z,46.60
2019-05-30T17:59:16.507Z,46.00
2019-05-30T18:01:44.869Z,46.60
2019-05-30T18:04:13.274Z,46.50
2019-05-30T18:06:41.712Z,46.10
2019-05-30T18:09:10.296Z,46.10
2019-05-30T18:11:38.675Z,46.60
2019-05-30T18:14:07.059Z,47.60
2019-05-30T18:16:35.478Z,48.40
2019-05-30T18:19:03.870Z,47.50
2019-05-30T18:21:34.983Z,47.90
2019-05-30T18:24:03.424Z,47.50
2019-05-30T18:26:31.965Z,47.00
2019-05-30T18:29:00.443Z,47.70
2019-05-30T18:31:30.049Z,48.40
2019-05-30T18:33:58.660Z,48.90
2019-05-30T18:36:28.159Z,49.10
2019-05-30T18:38:56.898Z,50.00
2019-05-30T18:41:25.268Z,49.70
2019-05-30T18:43:54.177Z,50.50
2019-05-30T18:46:23.015Z,50.80
2019-05-30T18:48:51.715Z,51.40
2019-05-30T18:51:20.154Z,51.00
2019-05-30T18:53:48.482Z,51.60
2019-05-30T18:56:16.856Z,51.00
2019-05-30T18:58:45.288Z,51.80
2019-05-30T19:01:13.674Z,51.80
2019-05-30T19:03:42.037Z,51.90
2019-05-30T19:06:10.571Z,52.40
2019-05-30T19:08:39.067Z,52.80
2019-05-30T19:11:07.463Z,53.00
2019-05-30T19:13:35.807Z,52.60
2019-05-30T19:16:04.514Z,53.10
2019-05-30T19:18:33.652Z,53.00
2019-05-30T19:21:02.013Z,53.40
2019-05-30T19:23:30.417Z,53.70
2019-05-30T19:25:58.746Z,53.60
2019-05-30T19:28:28.434Z,53.40
2019-05-30T19:30:56.923Z,52.90
2019-05-30T19:33:26.608Z,53.90
2019-05-30T19:35:55.110Z,54.10
2019-05-30T19:38:23.481Z,54.40
2019-05-30T19:40:51.865Z,54.00
2019-05-30T19:43:20.164Z,54.90
2019-05-30T19:45:48.568Z,54.40
2019-05-30T19:48:16.926Z,56.00
2019-05-30T19:50:45.320Z,56.10
2019-05-30T19:53:13.700Z,56.20
2019-05-30T19:55:42.081Z,56.40
2019-05-30T19:58:10.468Z,55.00
2019-05-30T20:00:57.479Z,55.10
2019-05-30T20:03:08.887Z,55.40
2019-05-30T20:05:37.296Z,56.30
2019-05-30T20:08:05.634Z,58.00
2019-05-30T20:10:35.005Z,56.10
2019-05-30T20:13:03.425Z,56.90
2019-05-30T20:15:31.812Z,56.60
2019-05-30T20:18:00.183Z,56.60
2019-05-30T20:20:28.509Z,56.90
2019-05-30T20:22:56.899Z,57.90
2019-05-30T20:25:25.322Z,57.60
2019-05-30T20:27:53.697Z,58.90
2019-05-30T20:30:23.063Z,59.20
2019-05-30T20:32:51.509Z,59.30
2019-05-30T20:35:19.827Z,59.10
2019-05-30T20:37:48.216Z,59.10
2019-05-30T20:40:16.833Z,59.40
2019-05-30T20:42:45.327Z,59.20
2019-05-30T20:45:13.695Z,60.80
2019-05-30T20:47:43.120Z,59.90
2019-05-30T20:50:15.037Z,59.40
2019-05-30T20:52:45.511Z,59.90
2019-05-30T20:55:13.886Z,59.80
2019-05-30T20:57:42.551Z,60.40
2019-05-30T21:00:12.012Z,61.70
2019-05-30T21:02:40.854Z,60.20
2019-05-30T21:05:10.421Z,61.20
2019-05-30T21:07:39.814Z,62.50
2019-05-30T21:10:08.219Z,61.90
2019-05-30T21:12:41.034Z,62.30
2019-05-30T21:15:07.396Z,62.70
2019-05-30T21:17:35.897Z,61.80
2019-05-30T21:20:05.781Z,61.60
2019-05-30T21:22:34.151Z,63.50
2019-05-30T21:25:02.542Z,63.40
2019-05-30T21:27:30.935Z,63.20
2019-05-30T21:29:59.298Z,63.20
2019-05-30T21:32:27.759Z,63.40
2019-05-30T21:34:56.231Z,62.90
2019-05-30T21:37:24.570Z,63.80
2019-05-30T21:39:52.938Z,63.30
2019-05-30T21:42:21.323Z,64.70
2019-05-30T21:44:52.359Z,64.50
2019-05-30T21:47:19.775Z,64.40
2019-05-30T21:49:49.197Z,65.80
2019-05-30T21:52:17.691Z,64.80
2019-05-30T21:54:46.112Z,64.60
2019-05-30T21:57:14.496Z,64.50
2019-05-30T21:59:42.857Z,63.60
2019-05-30T22:02:11.239Z,64.80
2019-05-30T22:04:40.453Z,64.90
2019-05-30T22:07:08.928Z,65.00
2019-05-30T22:09:37.389Z,64.60
2019-05-30T22:12:06.205Z,65.20
2019-05-30T22:14:34.588Z,65.40
2019-05-30T22:17:02.982Z,65.70
2019-05-30T22:19:31.399Z,65.90
2019-05-30T22:21:59.776Z,65.80
2019-05-30T22:24:28.163Z,65.80
2019-05-30T22:26:56.541Z,65.50
2019-05-30T22:29:24.936Z,66.00
2019-05-30T22:31:53.639Z,67.20
2019-05-30T22:34:22.122Z,67.00
2019-05-30T22:36:53.013Z,66.40
2019-05-30T22:39:21.415Z,67.00
2019-05-30T22:41:50.015Z,67.80
2019-05-30T22:44:18.537Z,68.90
2019-05-30T22:46:47.872Z,69.50
2019-05-30T22:49:16.552Z,68.50
2019-05-30T22:51:45.024Z,68.50
2019-05-30T22:54:13.581Z,69.70
2019-05-30T22:56:41.916Z,68.80
2019-05-30T22:59:10.336Z,68.90
2019-05-30T23:01:38.702Z,69.30
2019-05-30T23:04:07.162Z,69.50
2019-05-30T23:06:35.525Z,69.20
2019-05-30T23:09:05.952Z,69.90
2019-05-30T23:11:34.323Z,71.30
2019-05-30T23:14:02.711Z,70.60
2019-05-30T23:16:31.087Z,70.10
2019-05-30T23:18:59.471Z,69.20
2019-05-30T23:21:27.869Z,69.40
2019-05-30T23:23:57.269Z,70.60
2019-05-30T23:26:25.727Z,72.20
2019-05-30T23:28:54.119Z,70.40
2019-05-30T23:31:22.485Z,70.20
2019-05-30T23:33:50.808Z,70.30
2019-05-30T23:36:19.177Z,70.10
2019-05-30T23:38:48.574Z,69.60
2019-05-30T23:41:17.058Z,70.00
2019-05-30T23:43:55.946Z,70.00
2019-05-30T23:46:15.480Z,69.70
2019-05-30T23:48:43.862Z,70.60
2019-05-30T23:51:12.331Z,70.60
2019-05-30T23:53:40.711Z,70.50
2019-05-30T23:56:09.103Z,71.30
2019-05-30T23:58:37.472Z,71.80
